Time;durP1;ratioP1;P1;durP2;ratioP2;P2;SDS_P1;SDS_P2;PMS_P1;PMS_P2;Temp;Humidity;BMP_temperature;BMP_pressure;BME280_temperature;BME280_humidity;BME280_pressure;Samples;Min_cycle;Max_cycle;Signal;HPM_P1;HPM_P2
2021/11/24 00:01:54;;;;;;;;;;;18.40;31.80;;;;;;478916;247;1230;-78
2021/11/24 00:03:55;;;;;;;;;;;18.50;31.80;;;;;;471868;250;2176;-77
2021/11/24 00:05:57;;;;;;;;;;;18.50;31.70;;;;;;478958;247;980;-77
2021/11/24 00:07:59;;;;;;;;;;;18.40;31.70;;;;;;471855;251;1190;-77
2021/11/24 00:09:59;;;;;;;;;;;18.40;31.70;;;;;;479051;247;1366;-78
2021/11/24 00:12:03;;;;;;;;;;;18.40;31.80;;;;;;471822;251;1182;-77
2021/11/24 00:14:02;;;;;;;;;;;18.50;31.80;;;;;;478866;248;1500;-77
2021/11/24 00:16:04;;;;;;;;;;;18.40;31.70;;;;;;471909;251;1147;-77
2021/11/24 00:18:05;;;;;;;;;;;18.40;31.80;;;;;;479034;247;941;-78
2021/11/24 00:20:06;;;;;;;;;;;18.40;31.80;;;;;;471858;250;914;-77
2021/11/24 00:22:08;;;;;;;;;;;18.40;31.80;;;;;;478940;247;1163;-78
2021/11/24 00:24:09;;;;;;;;;;;18.40;31.70;;;;;;471859;250;2131;-78
2021/11/24 00:26:10;;;;;;;;;;;18.40;31.60;;;;;;478996;247;1129;-78
2021/11/24 00:28:12;;;;;;;;;;;18.50;31.60;;;;;;471854;250;1133;-78
2021/11/24 00:30:13;;;;;;;;;;;18.70;31.40;;;;;;478992;247;996;-78
2021/11/24 00:32:14;;;;;;;;;;;18.90;31.10;;;;;;471799;251;968;-77
2021/11/24 00:34:16;;;;;;;;;;;18.90;31.00;;;;;;479007;247;1156;-77
2021/11/24 00:36:17;;;;;;;;;;;18.90;30.80;;;;;;471888;251;1208;-77
2021/11/24 00:38:18;;;;;;;;;;;19.10;30.70;;;;;;479075;247;1141;-77
2021/11/24 00:40:20;;;;;;;;;;;19.10;30.60;;;;;;471868;251;1017;-78
2021/11/24 00:42:21;;;;;;;;;;;19.20;30.50;;;;;;478952;247;1130;-78
2021/11/24 00:44:22;;;;;;;;;;;19.10;30.40;;;;;;471887;251;2136;-77
2021/11/24 00:46:24;;;;;;;;;;;19.10;30.40;;;;;;478969;247;1271;-77
2021/11/24 00:48:25;;;;;;;;;;;19.30;30.40;;;;;;471854;251;1007;-77
2021/11/24 00:50:26;;;;;;;;;;;19.30;30.20;;;;;;479018;247;1141;-78
2021/11/24 00:52:29;;;;;;;;;;;19.40;30.00;;;;;;471882;251;1080;-78
2021/11/24 00:54:29;;;;;;;;;;;19.40;30.00;;;;;;478898;247;1450;-78
2021/11/24 00:56:30;;;;;;;;;;;19.40;30.10;;;;;;471784;251;1244;-77
2021/11/24 00:58:32;;;;;;;;;;;19.40;30.00;;;;;;478990;247;941;-78
2021/11/24 01:00:33;;;;;;;;;;;19.50;30.00;;;;;;471899;251;1240;-77
2021/11/24 01:02:35;;;;;;;;;;;19.40;30.00;;;;;;478978;247;1165;-77
2021/11/24 01:04:36;;;;;;;;;;;19.40;30.00;;;;;;471831;250;2175;-78
2021/11/24 01:06:37;;;;;;;;;;;19.40;30.00;;;;;;478941;247;1215;-78
2021/11/24 01:08:39;;;;;;;;;;;19.30;30.00;;;;;;471864;251;1194;-78
2021/11/24 01:10:40;;;;;;;;;;;19.30;30.00;;;;;;478957;247;1227;-77
2021/11/24 01:12:41;;;;;;;;;;;19.30;30.00;;;;;;471753;251;1108;-77
2021/11/24 01:14:43;;;;;;;;;;;19.40;30.00;;;;;;479006;247;963;-77
2021/11/24 01:16:44;;;;;;;;;;;19.40;30.00;;;;;;471859;251;1318;-78
2021/11/24 01:18:45;;;;;;;;;;;19.70;29.70;;;;;;478922;247;1325;-77
2021/11/24 01:20:47;;;;;;;;;;;19.70;29.80;;;;;;471735;251;1019;-78
2021/11/24 01:22:48;;;;;;;;;;;19.70;29.60;;;;;;478906;247;960;-77
2021/11/24 01:24:49;;;;;;;;;;;19.60;29.60;;;;;;471786;251;2198;-77
2021/11/24 01:26:51;;;;;;;;;;;19.60;29.70;;;;;;478975;247;1100;-77
2021/11/24 01:28:52;;;;;;;;;;;19.60;29.70;;;;;;471847;251;1021;-78
2021/11/24 01:30:53;;;;;;;;;;;19.80;29.60;;;;;;478941;247;937;-78
2021/11/24 01:32:55;;;;;;;;;;;19.90;29.60;;;;;;471867;251;1081;-77
2021/11/24 01:34:56;;;;;;;;;;;19.80;29.30;;;;;;478955;247;1033;-77
2021/11/24 01:36:57;;;;;;;;;;;19.80;29.50;;;;;;471792;251;1296;-78
2021/11/24 01:38:59;;;;;;;;;;;19.60;29.60;;;;;;478933;247;1234;-78
2021/11/24 01:41:00;;;;;;;;;;;19.60;29.60;;;;;;471906;251;1193;-78
2021/11/24 01:43:01;;;;;;;;;;;19.60;29.60;;;;;;478983;247;996;-77
2021/11/24 01:45:03;;;;;;;;;;;19.80;29.50;;;;;;471816;251;2194;-77
2021/11/24 01:47:04;;;;;;;;;;;19.70;29.50;;;;;;478876;247;966;-78
2021/11/24 01:49:05;;;;;;;;;;;19.80;29.30;;;;;;471828;251;1015;-78
2021/11/24 01:51:07;;;;;;;;;;;19.70;29.40;;;;;;478908;247;971;-77
2021/11/24 01:53:08;;;;;;;;;;;19.70;29.50;;;;;;471769;251;1133;-78
2021/11/24 01:55:09;;;;;;;;;;;19.70;29.50;;;;;;478997;247;1194;-78
2021/11/24 01:57:11;;;;;;;;;;;19.70;29.60;;;;;;471802;251;1096;-78
2021/11/24 01:59:12;;;;;;;;;;;19.70;29.40;;;;;;478946;247;955;-78
2021/11/24 02:01:14;;;;;;;;;;;19.80;29.40;;;;;;471717;251;1273;-78
2021/11/24 02:03:15;;;;;;;;;;;19.80;29.40;;;;;;478967;247;1177;-77
2021/11/24 02:05:16;;;;;;;;;;;19.80;29.30;;;;;;471831;251;2195;-77
2021/11/24 02:07:18;;;;;;;;;;;19.70;29.40;;;;;;479006;247;1147;-78
2021/11/24 02:09:20;;;;;;;;;;;19.60;29.40;;;;;;471865;251;1168;-78
2021/11/24 02:11:20;;;;;;;;;;;19.80;29.30;;;;;;478946;247;1442;-78
2021/11/24 02:13:22;;;;;;;;;;;19.70;29.30;;;;;;471799;251;1111;-78
2021/11/24 02:15:23;;;;;;;;;;;19.80;29.20;;;;;;478965;247;971;-77
2021/11/24 02:17:24;;;;;;;;;;;19.70;29.20;;;;;;471689;251;1346;-78
2021/11/24 02:19:26;;;;;;;;;;;19.80;29.10;;;;;;478960;247;1043;-78
2021/11/24 02:21:27;;;;;;;;;;;19.80;29.10;;;;;;471757;251;1187;-78
2021/11/24 02:23:28;;;;;;;;;;;19.70;29.10;;;;;;478944;247;1272;-78
2021/11/24 02:25:30;;;;;;;;;;;20.30;29.00;;;;;;471833;251;2243;-78
2021/11/24 02:27:31;;;;;;;;;;;20.00;28.80;;;;;;478957;247;1079;-77
2021/11/24 02:29:32;;;;;;;;;;;20.30;28.70;;;;;;471884;251;1005;-77
2021/11/24 02:31:34;;;;;;;;;;;19.90;28.80;;;;;;478971;247;1379;-77
2021/11/24 02:33:35;;;;;;;;;;;20.00;28.90;;;;;;471843;251;971;-77
2021/11/24 02:35:36;;;;;;;;;;;20.10;28.60;;;;;;478960;247;1080;-77
2021/11/24 02:37:38;;;;;;;;;;;20.00;28.90;;;;;;471717;251;1079;-77
2021/11/24 02:39:39;;;;;;;;;;;19.80;29.00;;;;;;478977;247;1161;-77
2021/11/24 02:41:40;;;;;;;;;;;19.80;28.90;;;;;;471753;251;1188;-77
2021/11/24 02:43:42;;;;;;;;;;;19.70;29.00;;;;;;478958;247;941;-78
2021/11/24 02:45:43;;;;;;;;;;;19.80;28.90;;;;;;471794;251;2182;-77
2021/11/24 02:47:44;;;;;;;;;;;19.70;29.00;;;;;;478886;247;1215;-78
2021/11/24 02:49:46;;;;;;;;;;;19.80;28.90;;;;;;471792;251;925;-77
2021/11/24 02:51:47;;;;;;;;;;;19.90;28.70;;;;;;478832;247;1225;-77
2021/11/24 02:53:50;;;;;;;;;;;20.00;28.80;;;;;;471808;251;956;-78
2021/11/24 02:55:50;;;;;;;;;;;19.90;28.70;;;;;;478868;248;1327;-77
2021/11/24 02:57:51;;;;;;;;;;;19.80;28.70;;;;;;471778;251;1237;-77
2021/11/24 02:59:52;;;;;;;;;;;20.00;28.80;;;;;;479024;247;1034;-77
2021/11/24 03:01:54;;;;;;;;;;;19.90;28.60;;;;;;471823;250;1092;-77
2021/11/24 03:03:55;;;;;;;;;;;20.10;28.70;;;;;;478985;247;952;-77
2021/11/24 03:05:56;;;;;;;;;;;20.10;28.40;;;;;;471831;251;2139;-77
2021/11/24 03:07:58;;;;;;;;;;;19.90;28.50;;;;;;478934;247;1226;-77
2021/11/24 03:09:59;;;;;;;;;;;19.70;28.70;;;;;;471860;251;1197;-77
2021/11/24 03:12:00;;;;;;;;;;;20.10;28.60;;;;;;479022;247;1108;-78
2021/11/24 03:14:02;;;;;;;;;;;19.80;28.60;;;;;;471824;251;955;-78
2021/11/24 03:16:03;;;;;;;;;;;19.80;28.70;;;;;;479041;247;1300;-77
2021/11/24 03:18:04;;;;;;;;;;;19.80;28.70;;;;;;471804;251;1203;-77
2021/11/24 03:20:06;;;;;;;;;;;19.70;28.70;;;;;;478921;247;1143;-78
2021/11/24 03:22:07;;;;;;;;;;;19.70;28.80;;;;;;471725;251;1168;-78
2021/11/24 03:24:08;;;;;;;;;;;19.60;28.70;;;;;;478933;247;947;-77
2021/11/24 03:26:10;;;;;;;;;;;19.80;28.70;;;;;;471759;251;2198;-77
2021/11/24 03:28:11;;;;;;;;;;;19.70;28.70;;;;;;478942;247;1029;-78
2021/11/24 03:30:12;;;;;;;;;;;19.90;28.60;;;;;;471849;251;1019;-77
2021/11/24 03:32:14;;;;;;;;;;;19.80;28.70;;;;;;478876;247;1176;-77
2021/11/24 03:34:15;;;;;;;;;;;20.20;28.60;;;;;;471871;251;957;-77
2021/11/24 03:36:16;;;;;;;;;;;19.90;28.40;;;;;;478964;247;1230;-77
2021/11/24 03:38:18;;;;;;;;;;;19.90;28.50;;;;;;471815;251;979;-77
2021/11/24 03:40:19;;;;;;;;;;;20.00;28.70;;;;;;478961;247;1165;-77
2021/11/24 03:42:20;;;;;;;;;;;20.00;28.40;;;;;;471869;251;1063;-77
2021/11/24 03:44:22;;;;;;;;;;;19.90;28.60;;;;;;479085;247;1092;-77
2021/11/24 03:46:23;;;;;;;;;;;19.90;28.30;;;;;;471785;251;2202;-78
2021/11/24 03:48:24;;;;;;;;;;;19.90;28.60;;;;;;478961;247;1116;-78
2021/11/24 03:50:26;;;;;;;;;;;19.80;28.50;;;;;;471760;250;1158;-77
2021/11/24 03:52:27;;;;;;;;;;;19.80;28.60;;;;;;478919;247;1363;-78
2021/11/24 03:54:28;;;;;;;;;;;19.70;28.70;;;;;;471831;250;1100;-77
2021/11/24 03:56:30;;;;;;;;;;;19.80;28.50;;;;;;478965;247;1210;-77
2021/11/24 03:58:32;;;;;;;;;;;19.70;28.70;;;;;;471901;251;1157;-78
2021/11/24 04:00:33;;;;;;;;;;;20.00;28.40;;;;;;478912;247;1450;-78
2021/11/24 04:02:34;;;;;;;;;;;19.80;28.60;;;;;;471741;251;1139;-78
2021/11/24 04:04:35;;;;;;;;;;;20.00;28.30;;;;;;479035;247;995;-77
2021/11/24 04:06:37;;;;;;;;;;;20.00;28.50;;;;;;471837;251;2116;-77
2021/11/24 04:08:38;;;;;;;;;;;19.90;28.40;;;;;;478970;247;965;-77
2021/11/24 04:10:39;;;;;;;;;;;19.80;28.60;;;;;;471816;250;1181;-78
2021/11/24 04:12:42;;;;;;;;;;;19.70;28.70;;;;;;478917;247;1120;-77
2021/11/24 04:14:43;;;;;;;;;;;19.60;28.80;;;;;;471792;251;1262;-77
2021/11/24 04:16:45;;;;;;;;;;;19.60;28.80;;;;;;478883;247;1157;-78
2021/11/24 04:18:47;;;;;;;;;;;19.70;28.80;;;;;;471818;251;938;-78
2021/11/24 04:20:48;;;;;;;;;;;19.60;28.80;;;;;;478943;248;1489;-78
2021/11/24 04:22:49;;;;;;;;;;;19.80;28.60;;;;;;471851;250;1220;-78
2021/11/24 04:24:50;;;;;;;;;;;19.70;28.70;;;;;;478998;247;970;-77
2021/11/24 04:26:52;;;;;;;;;;;19.90;28.50;;;;;;471752;251;2174;-78
2021/11/24 04:28:53;;;;;;;;;;;19.70;28.70;;;;;;478966;247;1155;-78
2021/11/24 04:30:55;;;;;;;;;;;19.80;28.60;;;;;;471748;251;1111;-78
2021/11/24 04:32:57;;;;;;;;;;;19.80;28.70;;;;;;478986;247;1068;-77
2021/11/24 04:34:58;;;;;;;;;;;19.80;28.70;;;;;;471797;251;952;-78
2021/11/24 04:36:59;;;;;;;;;;;19.80;28.80;;;;;;478813;247;1510;-77
2021/11/24 04:39:01;;;;;;;;;;;19.60;28.80;;;;;;471809;251;1174;-77
2021/11/24 04:41:02;;;;;;;;;;;19.70;28.90;;;;;;478980;247;1263;-77
2021/11/24 04:43:07;;;;;;;;;;;19.60;28.90;;;;;;471793;251;1269;-78
2021/11/24 04:45:05;;;;;;;;;;;19.60;29.00;;;;;;478705;248;1839;-77
2021/11/24 04:47:06;;;;;;;;;;;19.60;29.00;;;;;;471660;251;2191;-77
2021/11/24 04:49:08;;;;;;;;;;;19.70;29.00;;;;;;478893;247;1057;-77
2021/11/24 04:51:09;;;;;;;;;;;19.50;29.00;;;;;;471633;251;1246;-77
2021/11/24 04:53:11;;;;;;;;;;;19.70;28.90;;;;;;478882;247;1181;-77
2021/11/24 04:55:12;;;;;;;;;;;19.80;28.80;;;;;;471771;251;1524;-77
2021/11/24 04:57:13;;;;;;;;;;;19.80;28.80;;;;;;478946;247;1234;-77
2021/11/24 04:59:15;;;;;;;;;;;19.70;28.90;;;;;;471797;251;1188;-77
2021/11/24 05:01:16;;;;;;;;;;;19.90;28.60;;;;;;478862;247;1348;-77
2021/11/24 05:03:17;;;;;;;;;;;19.90;28.80;;;;;;471683;251;1117;-77
2021/11/24 05:05:20;;;;;;;;;;;20.00;28.70;;;;;;478823;247;936;-77
2021/11/24 05:07:20;;;;;;;;;;;19.70;28.80;;;;;;471636;251;2195;-78
2021/11/24 05:09:21;;;;;;;;;;;19.70;28.90;;;;;;478870;247;951;-78
2021/11/24 05:11:23;;;;;;;;;;;19.70;28.90;;;;;;471719;251;1290;-78
2021/11/24 05:13:24;;;;;;;;;;;19.60;28.90;;;;;;478923;247;982;-78
2021/11/24 05:15:28;;;;;;;;;;;19.50;29.00;;;;;;471769;251;1017;-77
2021/11/24 05:17:28;;;;;;;;;;;19.50;29.00;;;;;;478656;248;1430;-78
2021/11/24 05:19:30;;;;;;;;;;;19.60;28.90;;;;;;471675;251;1477;-77
2021/11/24 05:21:32;;;;;;;;;;;19.70;28.90;;;;;;478719;248;1524;-78
2021/11/24 05:23:36;;;;;;;;;;;19.70;28.90;;;;;;471764;252;1474;-77
2021/11/24 05:25:32;;;;;;;;;;;19.70;29.00;;;;;;478611;248;1469;-77
2021/11/24 05:27:33;;;;;;;;;;;19.70;29.00;;;;;;471747;251;2210;-78
2021/11/24 05:29:35;;;;;;;;;;;19.70;29.00;;;;;;478912;247;955;-77
2021/11/24 05:31:36;;;;;;;;;;;19.70;29.00;;;;;;471716;251;1242;-78
2021/11/24 05:33:37;;;;;;;;;;;19.70;29.00;;;;;;478882;247;1126;-78
2021/11/24 05:35:39;;;;;;;;;;;19.70;28.90;;;;;;471780;250;1117;-77
2021/11/24 05:37:40;;;;;;;;;;;19.60;29.00;;;;;;478784;247;1102;-77
2021/11/24 05:39:41;;;;;;;;;;;19.60;29.00;;;;;;471654;251;967;-78
2021/11/24 05:41:43;;;;;;;;;;;19.60;29.00;;;;;;478647;247;1196;-77
2021/11/24 05:43:45;;;;;;;;;;;19.70;29.00;;;;;;471525;251;973;-77
2021/11/24 05:46:09;;;;;;;;;;;19.70;29.00;;;;;;478663;247;1222;-77
2021/11/24 05:47:54;;;;;;;;;;;19.80;28.90;;;;;;470305;252;2194;-77
2021/11/24 05:49:52;;;;;;;;;;;19.90;28.80;;;;;;478793;248;1448;-78
2021/11/24 05:51:53;;;;;;;;;;;19.90;28.90;;;;;;471640;251;1099;-77
2021/11/24 05:53:54;;;;;;;;;;;19.90;28.90;;;;;;478832;247;977;-78
2021/11/24 05:55:56;;;;;;;;;;;19.70;28.90;;;;;;471666;250;1231;-77
2021/11/24 05:57:57;;;;;;;;;;;19.70;29.00;;;;;;478816;247;1224;-77
2021/11/24 05:59:58;;;;;;;;;;;19.80;29.00;;;;;;471611;250;980;-77
2021/11/24 06:02:00;;;;;;;;;;;19.70;29.00;;;;;;478762;247;1338;-77
2021/11/24 06:04:01;;;;;;;;;;;20.10;28.80;;;;;;471632;251;972;-77
2021/11/24 06:06:02;;;;;;;;;;;20.00;28.70;;;;;;478588;247;2178;-77
2021/11/24 06:08:04;;;;;;;;;;;19.90;28.90;;;;;;471525;251;1181;-77
2021/11/24 06:10:05;;;;;;;;;;;19.80;28.90;;;;;;478674;247;1099;-77
2021/11/24 06:12:06;;;;;;;;;;;19.80;28.90;;;;;;471624;251;1309;-78
2021/11/24 06:14:08;;;;;;;;;;;19.80;29.00;;;;;;478719;247;943;-77
2021/11/24 06:16:09;;;;;;;;;;;19.70;29.00;;;;;;471562;251;1277;-77
2021/11/24 06:18:10;;;;;;;;;;;19.70;29.20;;;;;;478849;247;1083;-77
2021/11/24 06:20:12;;;;;;;;;;;19.90;29.10;;;;;;471571;251;1137;-77
2021/11/24 06:22:13;;;;;;;;;;;19.70;29.10;;;;;;478529;247;1131;-77
2021/11/24 06:24:14;;;;;;;;;;;19.80;29.10;;;;;;471445;251;998;-77
2021/11/24 06:26:16;;;;;;;;;;;20.20;28.90;;;;;;478548;247;2166;-77
2021/11/24 06:28:17;;;;;;;;;;;19.90;28.90;;;;;;471426;251;1152;-77
2021/11/24 06:30:19;;;;;;;;;;;20.00;28.90;;;;;;478581;247;1191;-77
2021/11/24 06:32:20;;;;;;;;;;;19.90;28.80;;;;;;471328;251;1217;-77
2021/11/24 06:34:21;;;;;;;;;;;20.00;28.80;;;;;;478579;247;1190;-77
2021/11/24 06:36:24;;;;;;;;;;;19.80;28.90;;;;;;471453;250;988;-77
2021/11/24 06:38:25;;;;;;;;;;;19.90;29.00;;;;;;478537;247;1295;-77
2021/11/24 06:40:26;;;;;;;;;;;19.80;29.00;;;;;;471367;250;1330;-77
2021/11/24 06:42:27;;;;;;;;;;;19.80;29.00;;;;;;478543;247;1317;-77
2021/11/24 06:44:29;;;;;;;;;;;19.80;29.00;;;;;;471446;250;970;-77
2021/11/24 06:46:30;;;;;;;;;;;19.80;29.00;;;;;;478484;247;2178;-77
2021/11/24 06:48:31;;;;;;;;;;;19.80;28.90;;;;;;471436;250;961;-78
2021/11/24 06:50:33;;;;;;;;;;;19.90;28.90;;;;;;478652;247;974;-77
2021/11/24 06:52:34;;;;;;;;;;;19.80;28.90;;;;;;471489;251;1072;-77
2021/11/24 06:54:35;;;;;;;;;;;19.70;29.00;;;;;;478686;247;1065;-77
2021/11/24 06:56:37;;;;;;;;;;;19.70;29.10;;;;;;471522;250;1147;-78
2021/11/24 06:58:38;;;;;;;;;;;20.00;28.90;;;;;;478781;247;1213;-77
2021/11/24 07:00:39;;;;;;;;;;;19.90;29.00;;;;;;471432;250;1129;-77
2021/11/24 07:02:41;;;;;;;;;;;19.80;29.00;;;;;;478418;247;1023;-78
2021/11/24 07:04:42;;;;;;;;;;;20.10;28.80;;;;;;471553;250;1138;-77
2021/11/24 07:06:43;;;;;;;;;;;19.90;28.90;;;;;;478429;247;2187;-77
2021/11/24 07:08:45;;;;;;;;;;;19.90;28.90;;;;;;471439;251;1034;-77
2021/11/24 07:10:46;;;;;;;;;;;19.80;29.00;;;;;;478520;247;1079;-77
2021/11/24 07:12:48;;;;;;;;;;;19.90;29.00;;;;;;471280;251;1077;-77
2021/11/24 07:14:49;;;;;;;;;;;19.90;29.00;;;;;;478636;247;1116;-78
2021/11/24 07:16:50;;;;;;;;;;;19.80;29.00;;;;;;471276;251;1214;-77
2021/11/24 07:18:52;;;;;;;;;;;19.70;29.00;;;;;;478478;247;1303;-77
2021/11/24 07:20:53;;;;;;;;;;;19.80;29.00;;;;;;471300;250;1217;-77
2021/11/24 07:22:55;;;;;;;;;;;19.70;29.00;;;;;;478394;247;1293;-77
2021/11/24 07:24:56;;;;;;;;;;;19.70;29.10;;;;;;471294;252;1468;-78
2021/11/24 07:26:57;;;;;;;;;;;19.70;29.10;;;;;;478284;249;2247;-77
2021/11/24 07:28:58;;;;;;;;;;;19.70;29.10;;;;;;471320;251;1171;-77
2021/11/24 07:31:00;;;;;;;;;;;20.00;28.90;;;;;;478381;247;1101;-77
2021/11/24 07:33:01;;;;;;;;;;;19.90;28.90;;;;;;471350;251;1380;-78
2021/11/24 07:35:02;;;;;;;;;;;19.90;28.90;;;;;;478379;247;999;-77
2021/11/24 07:37:04;;;;;;;;;;;19.80;29.00;;;;;;471264;251;1156;-77
2021/11/24 07:39:05;;;;;;;;;;;19.70;29.10;;;;;;478414;247;1358;-77
2021/11/24 07:41:06;;;;;;;;;;;19.70;29.20;;;;;;471181;251;1088;-78
2021/11/24 07:43:08;;;;;;;;;;;19.70;29.10;;;;;;478244;247;1102;-78
2021/11/24 07:45:09;;;;;;;;;;;19.70;29.10;;;;;;471335;250;1196;-78
2021/11/24 07:47:12;;;;;;;;;;;19.70;29.10;;;;;;478477;247;2195;-77
2021/11/24 07:49:12;;;;;;;;;;;19.80;29.00;;;;;;471383;252;1254;-77
2021/11/24 07:51:17;;;;;;;;;;;19.90;29.00;;;;;;478343;247;1273;-77
2021/11/24 07:53:14;;;;;;;;;;;19.90;29.00;;;;;;471006;252;1416;-77
2021/11/24 07:55:16;;;;;;;;;;;20.00;29.00;;;;;;478272;247;994;-78
2021/11/24 07:57:19;;;;;;;;;;;19.80;29.00;;;;;;471140;251;1115;-78
2021/11/24 07:59:19;;;;;;;;;;;19.90;29.00;;;;;;478061;248;1397;-78
2021/11/24 08:01:20;;;;;;;;;;;19.80;29.00;;;;;;471159;250;1175;-78
2021/11/24 08:03:21;;;;;;;;;;;19.80;29.10;;;;;;478339;247;1124;-77
2021/11/24 08:05:23;;;;;;;;;;;19.90;29.00;;;;;;470990;250;1135;-78
2021/11/24 08:07:24;;;;;;;;;;;19.90;29.10;;;;;;478087;247;2195;-77
2021/11/24 08:09:25;;;;;;;;;;;19.80;29.10;;;;;;471047;250;1075;-78
2021/11/24 08:11:27;;;;;;;;;;;19.80;29.10;;;;;;478338;247;1050;-77
2021/11/24 08:13:28;;;;;;;;;;;19.80;29.20;;;;;;471013;251;1074;-78
2021/11/24 08:15:29;;;;;;;;;;;19.80;29.10;;;;;;478406;247;1240;-78
2021/11/24 08:17:31;;;;;;;;;;;20.00;29.00;;;;;;471252;251;1107;-78
2021/11/24 08:19:32;;;;;;;;;;;19.90;29.10;;;;;;478206;247;1077;-78
2021/11/24 08:21:33;;;;;;;;;;;19.80;29.10;;;;;;471202;251;1080;-78
2021/11/24 08:23:35;;;;;;;;;;;19.80;29.10;;;;;;478333;247;1092;-77
2021/11/24 08:25:36;;;;;;;;;;;20.20;29.10;;;;;;471206;250;1167;-78
2021/11/24 08:27:37;;;;;;;;;;;20.10;28.60;;;;;;478391;247;2210;-78
2021/11/24 08:29:39;;;;;;;;;;;20.10;28.90;;;;;;471106;251;1205;-78
2021/11/24 08:31:40;;;;;;;;;;;20.40;28.70;;;;;;478227;247;1169;-78
2021/11/24 08:33:41;;;;;;;;;;;20.60;28.60;;;;;;471497;251;1121;-78
2021/11/24 08:35:43;;;;;;;;;;;21.20;28.00;;;;;;478307;247;1216;-78
2021/11/24 08:37:44;;;;;;;;;;;21.50;27.80;;;;;;471214;251;1143;-78
2021/11/24 08:39:47;;;;;;;;;;;21.80;27.50;;;;;;478118;247;1002;-78
2021/11/24 08:41:47;;;;;;;;;;;22.20;27.00;;;;;;470912;251;1426;-78
2021/11/24 08:43:48;;;;;;;;;;;22.20;26.90;;;;;;478298;247;1109;-78
2021/11/24 08:45:50;;;;;;;;;;;22.30;27.00;;;;;;470930;251;1187;-78
2021/11/24 08:47:51;;;;;;;;;;;22.00;26.90;;;;;;478115;247;2202;-78
2021/11/24 08:49:52;;;;;;;;;;;22.40;26.90;;;;;;471086;251;973;-78
2021/11/24 08:51:54;;;;;;;;;;;22.30;26.80;;;;;;478332;247;1018;-78
2021/11/24 08:53:55;;;;;;;;;;;22.30;26.90;;;;;;471210;250;1014;-78
2021/11/24 08:55:57;;;;;;;;;;;22.10;26.90;;;;;;478060;247;987;-78
2021/11/24 08:57:58;;;;;;;;;;;22.00;27.10;;;;;;470842;250;1218;-78
2021/11/24 08:59:59;;;;;;;;;;;22.00;27.20;;;;;;477968;247;1317;-78
2021/11/24 09:02:01;;;;;;;;;;;21.60;27.30;;;;;;470966;248;1182;-78
2021/11/24 09:04:02;;;;;;;;;;;21.60;27.50;;;;;;478337;247;1039;-78
2021/11/24 09:06:06;;;;;;;;;;;21.10;27.70;;;;;;470971;251;995;-77
2021/11/24 09:08:05;;;;;;;;;;;21.30;27.80;;;;;;477885;248;2201;-78
2021/11/24 09:10:06;;;;;;;;;;;21.00;27.90;;;;;;471018;251;989;-78
2021/11/24 09:12:08;;;;;;;;;;;20.80;28.00;;;;;;478075;247;992;-78
2021/11/24 09:14:09;;;;;;;;;;;20.90;28.20;;;;;;470980;251;990;-78
2021/11/24 09:16:10;;;;;;;;;;;20.90;28.20;;;;;;478225;247;1175;-78
2021/11/24 09:18:12;;;;;;;;;;;20.70;28.30;;;;;;471077;251;1092;-78
2021/11/24 09:20:13;;;;;;;;;;;20.60;28.30;;;;;;478222;247;1041;-78
2021/11/24 09:22:15;;;;;;;;;;;20.50;28.30;;;;;;471048;251;1129;-78
2021/11/24 09:24:21;;;;;;;;;;;20.30;28.60;;;;;;478277;247;1210;-78
2021/11/24 09:26:20;;;;;;;;;;;20.40;28.60;;;;;;470915;252;1457;-78
2021/11/24 09:28:19;;;;;;;;;;;20.40;28.70;;;;;;478290;248;2214;-78
2021/11/24 09:30:20;;;;;;;;;;;20.50;28.40;;;;;;471338;251;1162;-78
2021/11/24 09:32:22;;;;;;;;;;;20.30;28.60;;;;;;478353;247;1106;-78
2021/11/24 09:34:23;;;;;;;;;;;20.70;28.40;;;;;;471110;251;1034;-78
2021/11/24 09:36:24;;;;;;;;;;;20.50;28.50;;;;;;478254;247;1387;-78
2021/11/24 09:38:26;;;;;;;;;;;20.30;28.60;;;;;;471159;251;1213;-78
2021/11/24 09:40:27;;;;;;;;;;;20.30;28.60;;;;;;478265;247;969;-78
2021/11/24 09:42:28;;;;;;;;;;;20.20;28.70;;;;;;471092;251;1113;-78
2021/11/24 09:44:30;;;;;;;;;;;20.50;28.60;;;;;;478139;247;1036;-78
2021/11/24 09:46:31;;;;;;;;;;;20.40;28.60;;;;;;471110;251;1172;-78
2021/11/24 09:48:33;;;;;;;;;;;20.20;28.70;;;;;;478292;247;2123;-78
2021/11/24 09:50:34;;;;;;;;;;;20.30;28.70;;;;;;470988;251;1099;-78
2021/11/24 09:52:35;;;;;;;;;;;20.40;28.70;;;;;;478005;247;1038;-77
2021/11/24 09:54:36;;;;;;;;;;;20.30;28.70;;;;;;470968;251;1013;-78
2021/11/24 09:56:40;;;;;;;;;;;20.60;28.40;;;;;;478214;247;971;-78
2021/11/24 09:58:39;;;;;;;;;;;20.50;28.50;;;;;;470934;252;2218;-78
2021/11/24 10:00:40;;;;;;;;;;;20.40;28.60;;;;;;478048;247;1152;-78
2021/11/24 10:02:42;;;;;;;;;;;20.20;28.80;;;;;;471228;251;1026;-78
2021/11/24 10:04:44;;;;;;;;;;;20.50;28.80;;;;;;478220;247;1012;-78
2021/11/24 10:06:45;;;;;;;;;;;20.30;28.60;;;;;;470845;251;1092;-78
2021/11/24 10:08:46;;;;;;;;;;;20.10;28.90;;;;;;478132;247;2198;-78
2021/11/24 10:10:48;;;;;;;;;;;20.20;28.90;;;;;;470971;251;1131;-78
2021/11/24 10:12:49;;;;;;;;;;;20.10;28.90;;;;;;478257;247;1068;-78
2021/11/24 10:14:50;;;;;;;;;;;20.20;29.00;;;;;;470453;251;1146;-78
2021/11/24 10:16:52;;;;;;;;;;;20.40;28.70;;;;;;478035;247;1272;-78
2021/11/24 10:18:53;;;;;;;;;;;20.20;28.90;;;;;;470845;251;1073;-78
2021/11/24 10:20:55;;;;;;;;;;;20.40;28.70;;;;;;477968;247;1128;-78
2021/11/24 10:22:56;;;;;;;;;;;20.40;28.80;;;;;;471070;251;1062;-78
2021/11/24 10:24:57;;;;;;;;;;;20.30;28.90;;;;;;478136;247;1102;-78
2021/11/24 10:26:59;;;;;;;;;;;20.20;28.80;;;;;;471011;251;1259;-78
2021/11/24 10:29:00;;;;;;;;;;;20.30;28.80;;;;;;477974;247;2183;-77
2021/11/24 10:31:01;;;;;;;;;;;20.50;28.60;;;;;;471121;251;1241;-78
2021/11/24 10:33:03;;;;;;;;;;;20.30;28.90;;;;;;478244;247;1090;-78
2021/11/24 10:35:04;;;;;;;;;;;20.40;28.80;;;;;;471018;251;1041;-78
2021/11/24 10:37:06;;;;;;;;;;;20.40;28.70;;;;;;478064;247;1110;-78
2021/11/24 10:39:07;;;;;;;;;;;20.40;28.80;;;;;;471025;251;1000;-78
2021/11/24 10:41:10;;;;;;;;;;;20.30;28.70;;;;;;478206;247;1052;-78
2021/11/24 10:43:09;;;;;;;;;;;20.30;28.80;;;;;;471043;251;1290;-78
2021/11/24 10:45:11;;;;;;;;;;;20.40;28.80;;;;;;478267;247;996;-78
2021/11/24 10:47:13;;;;;;;;;;;20.40;28.80;;;;;;471137;251;1261;-78
2021/11/24 10:49:13;;;;;;;;;;;20.40;28.80;;;;;;478232;248;2190;-78
2021/11/24 10:51:15;;;;;;;;;;;20.60;28.80;;;;;;470648;251;1174;-78
2021/11/24 10:53:16;;;;;;;;;;;20.50;28.70;;;;;;478109;247;1100;-78
2021/11/24 10:55:18;;;;;;;;;;;20.70;28.60;;;;;;471053;251;1047;-78
2021/11/24 10:57:19;;;;;;;;;;;20.70;28.60;;;;;;478227;247;1419;-78
2021/11/24 10:59:20;;;;;;;;;;;20.30;28.80;;;;;;470939;251;1159;-78
2021/11/24 11:01:23;;;;;;;;;;;20.70;28.50;;;;;;478278;247;1255;-78
2021/11/24 11:03:25;;;;;;;;;;;20.40;28.80;;;;;;471104;251;1404;-78
2021/11/24 11:05:25;;;;;;;;;;;20.70;28.50;;;;;;478146;248;1381;-78
2021/11/24 11:07:26;;;;;;;;;;;20.30;28.90;;;;;;470964;251;1007;-78
2021/11/24 11:09:27;;;;;;;;;;;20.20;29.00;;;;;;478007;247;2194;-78
2021/11/24 11:11:28;;;;;;;;;;;20.40;29.00;;;;;;470809;251;1073;-78
2021/11/24 11:13:30;;;;;;;;;;;20.50;29.00;;;;;;478056;247;1060;-78
2021/11/24 11:15:31;;;;;;;;;;;20.60;28.80;;;;;;470774;251;1065;-78
2021/11/24 11:17:32;;;;;;;;;;;20.40;28.80;;;;;;477965;247;1280;-78
2021/11/24 11:19:34;;;;;;;;;;;20.70;28.70;;;;;;470882;250;1086;-78
2021/11/24 11:21:35;;;;;;;;;;;20.50;28.80;;;;;;478227;247;1065;-77
2021/11/24 11:23:36;;;;;;;;;;;20.50;28.80;;;;;;471357;251;932;-77
2021/11/24 11:25:38;;;;;;;;;;;20.30;28.90;;;;;;478381;247;1195;-78
2021/11/24 11:27:39;;;;;;;;;;;20.80;28.70;;;;;;471133;251;1037;-77
2021/11/24 11:29:42;;;;;;;;;;;20.40;28.80;;;;;;478197;247;2191;-78
2021/11/24 11:31:42;;;;;;;;;;;20.30;29.00;;;;;;471220;252;1408;-78
2021/11/24 11:33:43;;;;;;;;;;;20.50;29.00;;;;;;478208;247;1211;-78
2021/11/24 11:35:45;;;;;;;;;;;20.70;28.70;;;;;;470977;251;1275;-77
2021/11/24 11:37:46;;;;;;;;;;;20.70;28.70;;;;;;478218;247;1105;-78
2021/11/24 11:39:47;;;;;;;;;;;21.00;28.40;;;;;;471098;251;1012;-78
2021/11/24 11:41:50;;;;;;;;;;;20.70;28.70;;;;;;478204;247;1166;-78
2021/11/24 11:43:50;;;;;;;;;;;20.60;28.70;;;;;;471048;252;1432;-78
2021/11/24 11:45:51;;;;;;;;;;;20.50;29.00;;;;;;477935;247;1235;-78
2021/11/24 11:47:53;;;;;;;;;;;20.60;29.00;;;;;;470693;251;1205;-77
2021/11/24 11:49:54;;;;;;;;;;;20.50;28.90;;;;;;478110;247;2179;-78
2021/11/24 11:51:55;;;;;;;;;;;20.60;28.80;;;;;;471054;251;1155;-78
2021/11/24 11:53:57;;;;;;;;;;;20.70;28.90;;;;;;478122;247;1007;-78
2021/11/24 11:55:58;;;;;;;;;;;20.50;29.00;;;;;;470924;251;1192;-78
2021/11/24 11:57:59;;;;;;;;;;;20.60;29.00;;;;;;477945;247;1133;-78